WetterOnline ( https://www.wetteronline.de )

Wetter aktuell Rückholz

Aktuelles Wetter: Oberstdorf (812m)

6-stündlich | Neueste Meldungen
Ortszeit Temperatur Wetter
So, 20.06. 20:00 21.6° C leichter Regen
So, 20.06. 14:00 24.8° C wolkig
So, 20.06. 8:00 21.4° C wolkig
So, 20.06. 2:00 17.9° C wolkig
Sa, 19.06. 20:00 27.9° C fast wolkenlos
Sa, 19.06. 14:00 28.2° C wolkenlos
Sa, 19.06. 8:00 20.0° C leicht bewölkt
Sa, 19.06. 2:00 18.7° C wolkig
Ortszeit Temperatur Wetter
So, 20.06. 22:00 17.3° C bewölkt
So, 20.06. 21:30 16.9° C wolkig
So, 20.06. 21:20 16.9° C wolkig
So, 20.06. 21:10 17.5° C bewölkt
So, 20.06. 21:00 18.8° C bewölkt
So, 20.06. 20:50 18.8° C bewölkt
So, 20.06. 20:30 19.1° C bewölkt
So, 20.06. 20:00 21.6° C leichter Regen
Ortszeit Relative Feuchte Sichtweite
So, 20.06. 20:00 84% 12 km
So, 20.06. 14:00 61% 23 km
So, 20.06. 8:00 70% 30 km
So, 20.06. 2:00 87% 35 km
Sa, 19.06. 20:00 52% 40 km
Sa, 19.06. 14:00 48% 35 km
Sa, 19.06. 8:00 75% 35 km
Sa, 19.06. 2:00 80% 40 km
Ortszeit Relative Feuchte Sichtweite
So, 20.06. 22:00 87% 45 km
So, 20.06. 21:30 93% 35 km
So, 20.06. 21:20 93% -
So, 20.06. 21:10 89% -
So, 20.06. 21:00 82% 40 km
So, 20.06. 20:50 82% -
So, 20.06. 20:30 83% 35 km
So, 20.06. 20:00 84% 12 km
Ortszeit Niederschlagsmenge Niederschlagsart
So, 20.06. 20:00 2 l/m2 in 12 Std. Regen
So, 20.06. 14:00 0.0 l/m2 in 6 Std. -
So, 20.06. 8:00 0.0 l/m2 in 12 Std. -
So, 20.06. 2:00 0.0 l/m2 in 6 Std. -
Sa, 19.06. 20:00 0.0 l/m2 in 12 Std. -
Sa, 19.06. 14:00 0.0 l/m2 in 6 Std. -
Sa, 19.06. 8:00 0.1 l/m2 in 12 Std. -
Sa, 19.06. 2:00 0.1 l/m2 in 6 Std. Regen
Ortszeit Niederschlagsmenge Niederschlagsart
So, 20.06. 22:00 0.0 l/m2 in 1 Std. -
So, 20.06. 21:30 0.0 l/m2 in 1 Std. -
So, 20.06. 21:20 keine Meldung -
So, 20.06. 21:10 keine Meldung -
So, 20.06. 21:00 0.2 l/m2 in 1 Std. Regen
So, 20.06. 20:50 keine Meldung -
So, 20.06. 20:30 0.2 l/m2 in 1 Std. Schneeregen
So, 20.06. 20:00 2.1 l/m2 in 1 Std. Regen
Ortszeit Stärke Spitze Richtung
km/h Bft. km/h Grad Sektor
So, 20.06. 20:00 22 4 36 220° SW
So, 20.06. 14:00 7 2 18 30° NO
So, 20.06. 8:00 4 1 32 120° SO
So, 20.06. 2:00 4 1 22 160° S
Sa, 19.06. 20:00 7 2 25 330° NW
Sa, 19.06. 14:00 18 3 29 340° N
Sa, 19.06. 8:00 9 2 20 190° S
Sa, 19.06. 2:00 11 2 43 140° SO
Ortszeit Stärke Spitze Richtung
km/h Bft. km/h Grad Sektor
So, 20.06. 22:00 7 2 22 230° SW
So, 20.06. 21:30 7 2 14 170° S
So, 20.06. 21:20 7 2 - 170° S
So, 20.06. 21:10 6 1 - 190° S
So, 20.06. 21:00 11 2 32 150° SO
So, 20.06. 20:50 11 2 - 150° SO
So, 20.06. 20:30 14 3 32 160° S
So, 20.06. 20:00 22 4 36 220° SW
Ortszeit Untergrenze Bedeckung Gattung
total tief tief mittel hoch
So, 20.06. 20:00 1140 m 7/8 7/8 - - -
So, 20.06. 14:00 4200 m 6/8 7/8 - - -
So, 20.06. 8:00 1200 m 5/8 4/8 - - -
So, 20.06. 2:00 9000 m 8/8 0/8 - - -
Sa, 19.06. 20:00 9000 m 1/8 0/8 - - -
Sa, 19.06. 14:00 - 0/8 0/8 - - -
Sa, 19.06. 8:00 1800 m 2/8 1/8 - - -
Sa, 19.06. 2:00 7200 m 8/8 0/8 - - -
Ortszeit Bedeckungsgrad in Achtel und Wolkenuntergrenze
So, 20.06. 22:00 6(6900m) 7(7500m)
So, 20.06. 21:30 4(5400m) 4(6300m) 7(8100m)
So, 20.06. 21:20 4(5400m) 4(6300m) 7(8100m)
So, 20.06. 21:10 2(4500m) 7(5400m) 8(8400m)
So, 20.06. 21:00 4(4500m) 6(5400m) 8(9000m)
So, 20.06. 20:50 4(4500m) 6(5400m) 8(9000m)
So, 20.06. 20:30 2(3000m) 7(5100m) 7(6300m)
So, 20.06. 20:00 1(1140m) 7(2700m)
Ortszeit Stationsdruck (hPa) Tendenz (hPa in 3 Std.)
So, 20.06. 20:00 918 + 0,9
So, 20.06. 14:00 921 - 1,5
So, 20.06. 8:00 923 + 1,7
So, 20.06. 2:00 922 + 0,4
Sa, 19.06. 20:00 922 - 0,5
Sa, 19.06. 14:00 924 - 2,4
Sa, 19.06. 8:00 927 + 0,9
Sa, 19.06. 2:00 925 + 0,2
Ortszeit Stationsdruck (hPa) Tendenz (hPa in 3 Std.)
So, 20.06. 22:00 918 + 0,2
So, 20.06. 21:30 918 + 0,2
So, 20.06. 21:20 918 keine Meldung
So, 20.06. 21:10 918 keine Meldung
So, 20.06. 21:00 917 + 0,1
So, 20.06. 20:50 917 keine Meldung
So, 20.06. 20:30 917 + 0,1
So, 20.06. 20:00 918 + 0,9
Ortszeit Schneehöhe (cm)
So, 20.06. 20:00 -
So, 20.06. 14:00 -
So, 20.06. 8:00 -
So, 20.06. 2:00 -
Sa, 19.06. 20:00 -
Sa, 19.06. 14:00 -
Sa, 19.06. 8:00 -
Sa, 19.06. 2:00 -
Ortszeit Schneehöhe (cm)
So, 20.06. 22:00 -
So, 20.06. 21:30 -
So, 20.06. 21:20 -
So, 20.06. 21:10 -
So, 20.06. 21:00 -
So, 20.06. 20:50 -
So, 20.06. 20:30 -
So, 20.06. 20:00 -
Link zu dieser Seite / Seite empfehlen

Das Wetter in ...